sensor_id;sensor_type;location;lat;lon;timestamp;pressure;altitude;pressure_sealevel;temperature;humidity
16834;BME280;8533;48.426;10.868;2023-12-29T00:01:30;96242.03;;;7.10;100.00
16834;BME280;8533;48.426;10.868;2023-12-29T00:03:56;96245.53;;;7.16;100.00
16834;BME280;8533;48.426;10.868;2023-12-29T00:06:21;96271.03;;;7.25;100.00
16834;BME280;8533;48.426;10.868;2023-12-29T00:08:47;96259.94;;;7.18;100.00
16834;BME280;8533;48.426;10.868;2023-12-29T00:11:21;96232.66;;;6.91;100.00
16834;BME280;8533;48.426;10.868;2023-12-29T00:13:47;96246.25;;;6.93;100.00
16834;BME280;8533;48.426;10.868;2023-12-29T00:16:13;96249.34;;;7.02;100.00
16834;BME280;8533;48.426;10.868;2023-12-29T00:18:38;96268.13;;;7.04;100.00
16834;BME280;8533;48.426;10.868;2023-12-29T00:21:04;96248.97;;;6.98;100.00
16834;BME280;8533;48.426;10.868;2023-12-29T00:23:30;96240.34;;;6.86;100.00
16834;BME280;8533;48.426;10.868;2023-12-29T00:25:55;96226.91;;;6.71;100.00
16834;BME280;8533;48.426;10.868;2023-12-29T00:28:20;96149.34;;;6.20;100.00
16834;BME280;8533;48.426;10.868;2023-12-29T00:30:46;96238.44;;;6.75;100.00
16834;BME280;8533;48.426;10.868;2023-12-29T00:33:11;96236.81;;;6.62;100.00
16834;BME280;8533;48.426;10.868;2023-12-29T00:35:37;96247.50;;;6.72;100.00
16834;BME280;8533;48.426;10.868;2023-12-29T00:38:04;96202.81;;;6.45;100.00
16834;BME280;8533;48.426;10.868;2023-12-29T00:40:29;96237.44;;;6.58;100.00
16834;BME280;8533;48.426;10.868;2023-12-29T00:42:54;96248.00;;;6.63;100.00
16834;BME280;8533;48.426;10.868;2023-12-29T00:45:20;96214.09;;;6.39;100.00
16834;BME280;8533;48.426;10.868;2023-12-29T00:47:46;96220.41;;;6.43;100.00
16834;BME280;8533;48.426;10.868;2023-12-29T00:50:13;96233.00;;;6.46;100.00
16834;BME280;8533;48.426;10.868;2023-12-29T00:52:39;96173.81;;;6.12;100.00
16834;BME280;8533;48.426;10.868;2023-12-29T00:55:04;96187.50;;;6.19;100.00
16834;BME280;8533;48.426;10.868;2023-12-29T00:57:30;96201.22;;;6.26;100.00
16834;BME280;8533;48.426;10.868;2023-12-29T00:59:55;96166.88;;;6.06;100.00
16834;BME280;8533;48.426;10.868;2023-12-29T01:02:20;96187.38;;;6.14;100.00
16834;BME280;8533;48.426;10.868;2023-12-29T01:04:45;96229.88;;;6.38;100.00
16834;BME280;8533;48.426;10.868;2023-12-29T01:07:11;96170.34;;;6.00;100.00
16834;BME280;8533;48.426;10.868;2023-12-29T01:09:39;96231.03;;;6.42;100.00
16834;BME280;8533;48.426;10.868;2023-12-29T01:12:07;96228.88;;;6.39;100.00
16834;BME280;8533;48.426;10.868;2023-12-29T01:14:32;96210.97;;;6.31;100.00
16834;BME280;8533;48.426;10.868;2023-12-29T01:16:58;96207.50;;;6.19;100.00
16834;BME280;8533;48.426;10.868;2023-12-29T01:19:23;96241.28;;;6.37;100.00
16834;BME280;8533;48.426;10.868;2023-12-29T01:21:48;96217.16;;;6.11;100.00
16834;BME280;8533;48.426;10.868;2023-12-29T01:24:13;96209.63;;;6.03;100.00
16834;BME280;8533;48.426;10.868;2023-12-29T01:26:39;96282.31;;;6.28;100.00
16834;BME280;8533;48.426;10.868;2023-12-29T01:29:05;96173.09;;;5.80;100.00
16834;BME280;8533;48.426;10.868;2023-12-29T01:31:31;96246.25;;;6.20;100.00
16834;BME280;8533;48.426;10.868;2023-12-29T01:33:57;96239.31;;;6.14;100.00
16834;BME280;8533;48.426;10.868;2023-12-29T01:36:22;96025.78;;;4.71;100.00
16834;BME280;8533;48.426;10.868;2023-12-29T01:38:48;96219.81;;;5.80;100.00
16834;BME280;8533;48.426;10.868;2023-12-29T01:41:13;96254.63;;;5.97;100.00
16834;BME280;8533;48.426;10.868;2023-12-29T01:46:19;96231.50;;;5.64;100.00
16834;BME280;8533;48.426;10.868;2023-12-29T01:48:45;96230.41;;;5.79;100.00
16834;BME280;8533;48.426;10.868;2023-12-29T01:51:10;96249.94;;;5.81;100.00
16834;BME280;8533;48.426;10.868;2023-12-29T01:53:35;96215.25;;;5.51;100.00
16834;BME280;8533;48.426;10.868;2023-12-29T01:56:01;96247.66;;;5.66;100.00
16834;BME280;8533;48.426;10.868;2023-12-29T01:58:26;96221.81;;;5.53;100.00
16834;BME280;8533;48.426;10.868;2023-12-29T02:00:52;96094.88;;;4.84;100.00
16834;BME280;8533;48.426;10.868;2023-12-29T02:03:17;96200.78;;;5.61;100.00
16834;BME280;8533;48.426;10.868;2023-12-29T02:05:43;96211.09;;;5.68;100.00
16834;BME280;8533;48.426;10.868;2023-12-29T02:08:10;96202.38;;;5.62;100.00
16834;BME280;8533;48.426;10.868;2023-12-29T02:10:37;96192.06;;;5.56;100.00
16834;BME280;8533;48.426;10.868;2023-12-29T02:13:02;96069.16;;;4.82;100.00
16834;BME280;8533;48.426;10.868;2023-12-29T02:15:27;96194.25;;;5.59;100.00
16834;BME280;8533;48.426;10.868;2023-12-29T02:18:00;95703.00;;;2.60;100.00
16834;BME280;8533;48.426;10.868;2023-12-29T02:20:27;96212.38;;;5.90;100.00
16834;BME280;8533;48.426;10.868;2023-12-29T02:22:52;96217.72;;;5.95;100.00
16834;BME280;8533;48.426;10.868;2023-12-29T02:25:17;96203.06;;;6.01;100.00
16834;BME280;8533;48.426;10.868;2023-12-29T02:27:58;96155.63;;;5.69;100.00
16834;BME280;8533;48.426;10.868;2023-12-29T02:30:45;96157.00;;;5.71;100.00
16834;BME280;8533;48.426;10.868;2023-12-29T02:33:19;96176.28;;;5.82;100.00
16834;BME280;8533;48.426;10.868;2023-12-29T02:35:46;96201.34;;;5.95;100.00
16834;BME280;8533;48.426;10.868;2023-12-29T02:38:14;96218.38;;;6.09;100.00
16834;BME280;8533;48.426;10.868;2023-12-29T02:40:40;96209.28;;;6.00;100.00
16834;BME280;8533;48.426;10.868;2023-12-29T02:43:05;96205.97;;;6.11;100.00
16834;BME280;8533;48.426;10.868;2023-12-29T02:45:31;96187.28;;;6.02;100.00
16834;BME280;8533;48.426;10.868;2023-12-29T02:47:56;96176.56;;;5.99;100.00
16834;BME280;8533;48.426;10.868;2023-12-29T02:50:21;96169.69;;;6.04;100.00
16834;BME280;8533;48.426;10.868;2023-12-29T02:52:47;96207.00;;;6.28;100.00
16834;BME280;8533;48.426;10.868;2023-12-29T02:55:12;96173.81;;;6.12;100.00
16834;BME280;8533;48.426;10.868;2023-12-29T02:57:38;96109.28;;;5.72;100.00
16834;BME280;8533;48.426;10.868;2023-12-29T03:00:05;96216.47;;;6.23;100.00
16834;BME280;8533;48.426;10.868;2023-12-29T03:02:30;96108.41;;;5.79;100.00
16834;BME280;8533;48.426;10.868;2023-12-29T03:04:55;96173.22;;;6.28;100.00
16834;BME280;8533;48.426;10.868;2023-12-29T03:07:21;96130.63;;;5.99;100.00
16834;BME280;8533;48.426;10.868;2023-12-29T03:09:46;96167.91;;;6.23;100.00
16834;BME280;8533;48.426;10.868;2023-12-29T03:12:11;96134.56;;;6.02;100.00
16834;BME280;8533;48.426;10.868;2023-12-29T03:14:36;96177.13;;;6.19;100.00
16834;BME280;8533;48.426;10.868;2023-12-29T03:17:02;96157.84;;;6.08;100.00
16834;BME280;8533;48.426;10.868;2023-12-29T03:19:27;96155.63;;;6.12;100.00
16834;BME280;8533;48.426;10.868;2023-12-29T03:21:53;96137.59;;;5.99;100.00
16834;BME280;8533;48.426;10.868;2023-12-29T03:24:19;96142.63;;;5.94;100.00
16834;BME280;8533;48.426;10.868;2023-12-29T03:26:44;95984.84;;;5.05;100.00
16834;BME280;8533;48.426;10.868;2023-12-29T03:29:10;96133.84;;;5.95;100.00
16834;BME280;8533;48.426;10.868;2023-12-29T03:31:36;96148.94;;;6.04;100.00
16834;BME280;8533;48.426;10.868;2023-12-29T03:34:01;96122.53;;;5.89;100.00
16834;BME280;8533;48.426;10.868;2023-12-29T03:36:26;96179.44;;;6.27;100.00
16834;BME280;8533;48.426;10.868;2023-12-29T03:38:52;96174.81;;;6.29;100.00
16834;BME280;8533;48.426;10.868;2023-12-29T03:41:17;95931.84;;;4.82;100.00
16834;BME280;8533;48.426;10.868;2023-12-29T03:43:43;96067.78;;;5.72;100.00
16834;BME280;8533;48.426;10.868;2023-12-29T03:46:20;96088.56;;;5.91;100.00
16834;BME280;8533;48.426;10.868;2023-12-29T03:48:46;96148.84;;;6.29;100.00
16834;BME280;8533;48.426;10.868;2023-12-29T03:51:11;96124.84;;;6.16;100.00
16834;BME280;8533;48.426;10.868;2023-12-29T03:53:37;96126.91;;;6.25;100.00
16834;BME280;8533;48.426;10.868;2023-12-29T03:56:12;96135.66;;;6.31;100.00
16834;BME280;8533;48.426;10.868;2023-12-29T03:58:38;96139.59;;;6.33;100.00
16834;BME280;8533;48.426;10.868;2023-12-29T04:01:03;96154.97;;;6.35;100.00
16834;BME280;8533;48.426;10.868;2023-12-29T04:03:29;96132.09;;;6.25;100.00
16834;BME280;8533;48.426;10.868;2023-12-29T04:05:54;96139.38;;;6.35;100.00
16834;BME280;8533;48.426;10.868;2023-12-29T04:08:19;96138.16;;;6.37;100.00
16834;BME280;8533;48.426;10.868;2023-12-29T04:10:45;96138.44;;;6.47;100.00
16834;BME280;8533;48.426;10.868;2023-12-29T04:13:10;96131.28;;;6.43;100.00
16834;BME280;8533;48.426;10.868;2023-12-29T04:15:35;96129.66;;;6.48;100.00
16834;BME280;8533;48.426;10.868;2023-12-29T04:18:00;96088.41;;;6.22;100.00
16834;BME280;8533;48.426;10.868;2023-12-29T04:20:26;96133.28;;;6.59;100.00
16834;BME280;8533;48.426;10.868;2023-12-29T04:22:52;96109.94;;;6.41;100.00
16834;BME280;8533;48.426;10.868;2023-12-29T04:25:17;96092.41;;;6.36;100.00
16834;BME280;8533;48.426;10.868;2023-12-29T04:27:42;96151.38;;;6.66;100.00
16834;BME280;8533;48.426;10.868;2023-12-29T04:30:08;96147.22;;;6.65;100.00
16834;BME280;8533;48.426;10.868;2023-12-29T04:32:33;96117.66;;;6.47;100.00
16834;BME280;8533;48.426;10.868;2023-12-29T04:34:58;96116.16;;;6.40;100.00
16834;BME280;8533;48.426;10.868;2023-12-29T04:37:24;96155.09;;;6.58;100.00
16834;BME280;8533;48.426;10.868;2023-12-29T04:39:49;96151.16;;;6.56;100.00
16834;BME280;8533;48.426;10.868;2023-12-29T04:42:14;96153.88;;;6.61;100.00
16834;BME280;8533;48.426;10.868;2023-12-29T04:44:40;95965.56;;;5.37;100.00
16834;BME280;8533;48.426;10.868;2023-12-29T04:47:05;96065.25;;;6.02;100.00
16834;BME280;8533;48.426;10.868;2023-12-29T04:49:30;96146.28;;;6.59;100.00
16834;BME280;8533;48.426;10.868;2023-12-29T04:51:55;96123.88;;;6.46;100.00
16834;BME280;8533;48.426;10.868;2023-12-29T04:54:21;96081.13;;;6.31;100.00
16834;BME280;8533;48.426;10.868;2023-12-29T04:56:46;96052.13;;;6.16;100.00
16834;BME280;8533;48.426;10.868;2023-12-29T04:59:11;96142.75;;;6.72;100.00
16834;BME280;8533;48.426;10.868;2023-12-29T05:01:37;96150.53;;;6.72;100.00
16834;BME280;8533;48.426;10.868;2023-12-29T05:04:02;95932.75;;;5.31;100.00
16834;BME280;8533;48.426;10.868;2023-12-29T05:06:27;96089.81;;;6.36;100.00
16834;BME280;8533;48.426;10.868;2023-12-29T05:08:53;96147.94;;;6.72;100.00
16834;BME280;8533;48.426;10.868;2023-12-29T05:11:18;96121.31;;;6.58;100.00
16834;BME280;8533;48.426;10.868;2023-12-29T05:13:43;96062.28;;;6.17;100.00
16834;BME280;8533;48.426;10.868;2023-12-29T05:16:09;96121.09;;;6.60;100.00
16834;BME280;8533;48.426;10.868;2023-12-29T05:18:34;96108.31;;;6.58;100.00
16834;BME280;8533;48.426;10.868;2023-12-29T05:20:59;96066.66;;;6.35;100.00
16834;BME280;8533;48.426;10.868;2023-12-29T05:23:25;96133.69;;;6.74;100.00
16834;BME280;8533;48.426;10.868;2023-12-29T05:25:51;95981.13;;;5.73;100.00
16834;BME280;8533;48.426;10.868;2023-12-29T05:28:16;96061.69;;;6.33;100.00
16834;BME280;8533;48.426;10.868;2023-12-29T05:30:42;96170.25;;;6.91;100.00
16834;BME280;8533;48.426;10.868;2023-12-29T05:33:07;96153.84;;;6.79;100.00
16834;BME280;8533;48.426;10.868;2023-12-29T05:35:32;96155.97;;;6.82;100.00
16834;BME280;8533;48.426;10.868;2023-12-29T05:37:57;96180.66;;;6.91;100.00
16834;BME280;8533;48.426;10.868;2023-12-29T05:40:23;96179.53;;;6.87;100.00
16834;BME280;8533;48.426;10.868;2023-12-29T05:42:48;96172.38;;;6.82;100.00
16834;BME280;8533;48.426;10.868;2023-12-29T05:45:16;96223.34;;;6.83;100.00
16834;BME280;8533;48.426;10.868;2023-12-29T05:47:41;96135.69;;;6.61;100.00
16834;BME280;8533;48.426;10.868;2023-12-29T05:50:06;96172.75;;;6.86;100.00
16834;BME280;8533;48.426;10.868;2023-12-29T05:52:32;96166.31;;;6.88;100.00
16834;BME280;8533;48.426;10.868;2023-12-29T05:54:57;96121.59;;;6.68;100.00
16834;BME280;8533;48.426;10.868;2023-12-29T05:57:22;96124.09;;;6.75;100.00
16834;BME280;8533;48.426;10.868;2023-12-29T05:59:48;96149.03;;;6.94;100.00
16834;BME280;8533;48.426;10.868;2023-12-29T06:02:13;96185.97;;;7.26;100.00
16834;BME280;8533;48.426;10.868;2023-12-29T06:04:38;96159.72;;;7.16;100.00
16834;BME280;8533;48.426;10.868;2023-12-29T06:07:03;96154.56;;;7.27;100.00
16834;BME280;8533;48.426;10.868;2023-12-29T06:09:29;96144.03;;;7.34;100.00
16834;BME280;8533;48.426;10.868;2023-12-29T06:11:54;95977.44;;;6.29;100.00
16834;BME280;8533;48.426;10.868;2023-12-29T06:14:19;96171.09;;;7.45;100.00
16834;BME280;8533;48.426;10.868;2023-12-29T06:16:45;96140.97;;;7.25;100.00
16834;BME280;8533;48.426;10.868;2023-12-29T06:19:10;96147.38;;;7.11;100.00
16834;BME280;8533;48.426;10.868;2023-12-29T06:21:42;96128.84;;;7.19;100.00
16834;BME280;8533;48.426;10.868;2023-12-29T06:24:10;96123.34;;;7.27;100.00
16834;BME280;8533;48.426;10.868;2023-12-29T06:26:38;96138.25;;;7.32;100.00
16834;BME280;8533;48.426;10.868;2023-12-29T06:29:09;96150.59;;;7.37;100.00
16834;BME280;8533;48.426;10.868;2023-12-29T06:31:34;96138.94;;;7.27;100.00
16834;BME280;8533;48.426;10.868;2023-12-29T06:34:00;96129.66;;;7.20;100.00
16834;BME280;8533;48.426;10.868;2023-12-29T06:36:25;96117.81;;;6.94;100.00
16834;BME280;8533;48.426;10.868;2023-12-29T06:38:50;96162.47;;;7.33;100.00
16834;BME280;8533;48.426;10.868;2023-12-29T06:41:17;96124.88;;;7.05;100.00
16834;BME280;8533;48.426;10.868;2023-12-29T06:43:42;96062.81;;;6.67;100.00
16834;BME280;8533;48.426;10.868;2023-12-29T06:46:08;96117.41;;;6.97;100.00
16834;BME280;8533;48.426;10.868;2023-12-29T06:48:34;96127.34;;;7.00;100.00
16834;BME280;8533;48.426;10.868;2023-12-29T06:50:59;96173.34;;;7.30;100.00
16834;BME280;8533;48.426;10.868;2023-12-29T06:53:24;96158.03;;;7.21;100.00
16834;BME280;8533;48.426;10.868;2023-12-29T06:55:49;96146.38;;;7.12;100.00
16834;BME280;8533;48.426;10.868;2023-12-29T06:58:15;96152.69;;;7.16;100.00
16834;BME280;8533;48.426;10.868;2023-12-29T07:00:40;96148.41;;;7.10;100.00
16834;BME280;8533;48.426;10.868;2023-12-29T07:03:05;96160.16;;;7.13;100.00
16834;BME280;8533;48.426;10.868;2023-12-29T07:05:30;96156.78;;;7.12;100.00
16834;BME280;8533;48.426;10.868;2023-12-29T07:07:56;96176.69;;;7.30;100.00
16834;BME280;8533;48.426;10.868;2023-12-29T07:10:21;96092.78;;;6.70;100.00
16834;BME280;8533;48.426;10.868;2023-12-29T07:12:46;96096.19;;;6.70;100.00
16834;BME280;8533;48.426;10.868;2023-12-29T07:15:11;96079.88;;;6.63;100.00
16834;BME280;8533;48.426;10.868;2023-12-29T07:17:39;96129.13;;;6.88;100.00
16834;BME280;8533;48.426;10.868;2023-12-29T07:20:05;96170.59;;;7.24;100.00
16834;BME280;8533;48.426;10.868;2023-12-29T07:22:32;96138.97;;;6.98;100.00
16834;BME280;8533;48.426;10.868;2023-12-29T07:24:58;96190.06;;;7.34;100.00
16834;BME280;8533;48.426;10.868;2023-12-29T07:27:23;96176.09;;;7.16;100.00
16834;BME280;8533;48.426;10.868;2023-12-29T07:29:48;96160.59;;;7.10;100.00
16834;BME280;8533;48.426;10.868;2023-12-29T07:32:14;96182.00;;;7.23;100.00
16834;BME280;8533;48.426;10.868;2023-12-29T07:38:01;96186.09;;;7.31;100.00
16834;BME280;8533;48.426;10.868;2023-12-29T07:50:45;96146.72;;;7.16;100.00
16834;BME280;8533;48.426;10.868;2023-12-29T07:53:10;96198.00;;;7.39;100.00
16834;BME280;8533;48.426;10.868;2023-12-29T07:55:39;96192.25;;;7.37;100.00
16834;BME280;8533;48.426;10.868;2023-12-29T07:58:07;96183.41;;;7.38;100.00
16834;BME280;8533;48.426;10.868;2023-12-29T08:00:35;96166.97;;;7.25;100.00
16834;BME280;8533;48.426;10.868;2023-12-29T08:03:00;96172.19;;;7.25;100.00
16834;BME280;8533;48.426;10.868;2023-12-29T08:05:25;96148.19;;;7.12;100.00
16834;BME280;8533;48.426;10.868;2023-12-29T08:07:51;96126.22;;;6.96;100.00
16834;BME280;8533;48.426;10.868;2023-12-29T08:10:16;96166.19;;;7.25;100.00
16834;BME280;8533;48.426;10.868;2023-12-29T08:12:41;96165.06;;;7.33;100.00
16834;BME280;8533;48.426;10.868;2023-12-29T08:15:07;96153.75;;;7.27;100.00
16834;BME280;8533;48.426;10.868;2023-12-29T08:17:32;96187.94;;;7.42;100.00
16834;BME280;8533;48.426;10.868;2023-12-29T08:19:58;96188.31;;;7.46;100.00
16834;BME280;8533;48.426;10.868;2023-12-29T08:22:23;96165.97;;;7.38;100.00
16834;BME280;8533;48.426;10.868;2023-12-29T08:24:48;96147.06;;;7.19;100.00
16834;BME280;8533;48.426;10.868;2023-12-29T08:27:14;96178.66;;;7.46;100.00
16834;BME280;8533;48.426;10.868;2023-12-29T08:29:47;96140.06;;;7.20;100.00
16834;BME280;8533;48.426;10.868;2023-12-29T08:32:12;96155.78;;;7.25;100.00
16834;BME280;8533;48.426;10.868;2023-12-29T08:37:59;96195.06;;;7.47;100.00
16834;BME280;8533;48.426;10.868;2023-12-29T08:40:24;96166.97;;;7.25;100.00
16834;BME280;8533;48.426;10.868;2023-12-29T08:42:50;96188.03;;;7.36;100.00
16834;BME280;8533;48.426;10.868;2023-12-29T08:45:15;96202.31;;;7.45;100.00
16834;BME280;8533;48.426;10.868;2023-12-29T08:47:40;96121.47;;;7.05;100.00
16834;BME280;8533;48.426;10.868;2023-12-29T08:50:06;96130.31;;;7.15;100.00
16834;BME280;8533;48.426;10.868;2023-12-29T08:52:31;96145.84;;;7.34;100.00
16834;BME280;8533;48.426;10.868;2023-12-29T08:58:19;96196.94;;;7.81;100.00
16834;BME280;8533;48.426;10.868;2023-12-29T09:00:45;96178.91;;;7.80;100.00
16834;BME280;8533;48.426;10.868;2023-12-29T09:03:10;96177.69;;;7.94;100.00
16834;BME280;8533;48.426;10.868;2023-12-29T09:05:35;96205.31;;;8.18;100.00
16834;BME280;8533;48.426;10.868;2023-12-29T09:08:00;96035.56;;;7.35;100.00
16834;BME280;8533;48.426;10.868;2023-12-29T09:10:26;96095.94;;;7.83;100.00
16834;BME280;8533;48.426;10.868;2023-12-29T09:12:51;96101.03;;;8.01;100.00
16834;BME280;8533;48.426;10.868;2023-12-29T09:15:16;96157.72;;;8.46;100.00
16834;BME280;8533;48.426;10.868;2023-12-29T09:17:42;96212.88;;;8.95;100.00
16834;BME280;8533;48.426;10.868;2023-12-29T09:20:08;96186.16;;;8.88;100.00
16834;BME280;8533;48.426;10.868;2023-12-29T09:22:33;96221.00;;;9.10;100.00
16834;BME280;8533;48.426;10.868;2023-12-29T09:24:59;96187.13;;;8.98;100.00
16834;BME280;8533;48.426;10.868;2023-12-29T09:27:24;96205.44;;;9.15;100.00
16834;BME280;8533;48.426;10.868;2023-12-29T09:29:50;96202.84;;;9.15;100.00
16834;BME280;8533;48.426;10.868;2023-12-29T09:32:15;96138.06;;;8.67;100.00
16834;BME280;8533;48.426;10.868;2023-12-29T09:34:41;96183.50;;;8.99;100.00
16834;BME280;8533;48.426;10.868;2023-12-29T09:37:07;96216.41;;;9.17;100.00
16834;BME280;8533;48.426;10.868;2023-12-29T09:39:33;95990.91;;;7.78;100.00
16834;BME280;8533;48.426;10.868;2023-12-29T09:41:59;96199.88;;;9.11;100.00
16834;BME280;8533;48.426;10.868;2023-12-29T09:44:27;96231.63;;;9.20;100.00
16834;BME280;8533;48.426;10.868;2023-12-29T09:46:54;96199.22;;;9.33;100.00
16834;BME280;8533;48.426;10.868;2023-12-29T09:49:20;96185.41;;;9.32;100.00
16834;BME280;8533;48.426;10.868;2023-12-29T09:51:47;96206.53;;;9.47;100.00
16834;BME280;8533;48.426;10.868;2023-12-29T09:54:13;96200.19;;;9.60;100.00
16834;BME280;8533;48.426;10.868;2023-12-29T09:56:40;96203.03;;;9.75;100.00
16834;BME280;8533;48.426;10.868;2023-12-29T09:59:06;96194.81;;;9.83;100.00
16834;BME280;8533;48.426;10.868;2023-12-29T10:01:34;96075.03;;;9.03;100.00
16834;BME280;8533;48.426;10.868;2023-12-29T10:04:00;96155.91;;;9.48;100.00
16834;BME280;8533;48.426;10.868;2023-12-29T10:06:25;96200.19;;;9.77;100.00
16834;BME280;8533;48.426;10.868;2023-12-29T10:08:51;96140.75;;;9.34;100.00
16834;BME280;8533;48.426;10.868;2023-12-29T10:11:22;96135.78;;;9.15;100.00
16834;BME280;8533;48.426;10.868;2023-12-29T10:13:50;96209.56;;;9.56;100.00
16834;BME280;8533;48.426;10.868;2023-12-29T10:16:38;96188.09;;;9.54;100.00
16834;BME280;8533;48.426;10.868;2023-12-29T10:22:11;96228.84;;;9.55;100.00
16834;BME280;8533;48.426;10.868;2023-12-29T10:28:02;96153.53;;;9.47;100.00
16834;BME280;8533;48.426;10.868;2023-12-29T10:33:51;96179.53;;;9.58;100.00
16834;BME280;8533;48.426;10.868;2023-12-29T10:39:55;95981.22;;;8.75;100.00
16834;BME280;8533;48.426;10.868;2023-12-29T10:45:46;96162.66;;;10.00;100.00
16834;BME280;8533;48.426;10.868;2023-12-29T10:48:21;96152.44;;;9.98;100.00
16834;BME280;8533;48.426;10.868;2023-12-29T10:50:46;96165.09;;;10.06;100.00
16834;BME280;8533;48.426;10.868;2023-12-29T10:53:12;96147.47;;;9.97;100.00
16834;BME280;8533;48.426;10.868;2023-12-29T10:55:38;96163.59;;;10.10;100.00
16834;BME280;8533;48.426;10.868;2023-12-29T10:58:05;95894.41;;;8.41;100.00
16834;BME280;8533;48.426;10.868;2023-12-29T11:00:30;96124.50;;;9.99;100.00
16834;BME280;8533;48.426;10.868;2023-12-29T11:02:56;96086.28;;;9.92;100.00
16834;BME280;8533;48.426;10.868;2023-12-29T11:05:24;95917.56;;;8.93;100.00
16834;BME280;8533;48.426;10.868;2023-12-29T11:07:50;96108.38;;;10.23;100.00
16834;BME280;8533;48.426;10.868;2023-12-29T11:13:41;96117.19;;;10.39;100.00
16834;BME280;8533;48.426;10.868;2023-12-29T11:16:07;96123.09;;;10.29;100.00
16834;BME280;8533;48.426;10.868;2023-12-29T11:18:33;96080.69;;;10.06;100.00
16834;BME280;8533;48.426;10.868;2023-12-29T11:24:21;96123.22;;;10.40;100.00
16834;BME280;8533;48.426;10.868;2023-12-29T11:26:49;96124.25;;;10.39;100.00
16834;BME280;8533;48.426;10.868;2023-12-29T11:29:15;96130.09;;;10.46;100.00
16834;BME280;8533;48.426;10.868;2023-12-29T11:31:41;96103.09;;;10.40;100.00
16834;BME280;8533;48.426;10.868;2023-12-29T11:34:14;96057.63;;;10.19;100.00
16834;BME280;8533;48.426;10.868;2023-12-29T11:36:46;95852.81;;;9.06;100.00
16834;BME280;8533;48.426;10.868;2023-12-29T11:42:19;96107.59;;;10.71;100.00
16834;BME280;8533;48.426;10.868;2023-12-29T11:44:46;96051.66;;;10.24;100.00
16834;BME280;8533;48.426;10.868;2023-12-29T11:47:35;96110.63;;;10.58;100.00
16834;BME280;8533;48.426;10.868;2023-12-29T11:50:02;96113.47;;;10.57;100.00
16834;BME280;8533;48.426;10.868;2023-12-29T11:52:38;96107.97;;;10.53;100.00
16834;BME280;8533;48.426;10.868;2023-12-29T11:55:15;95900.53;;;9.24;100.00
16834;BME280;8533;48.426;10.868;2023-12-29T11:57:43;96086.97;;;10.48;100.00
16834;BME280;8533;48.426;10.868;2023-12-29T12:00:09;96077.13;;;10.33;100.00
16834;BME280;8533;48.426;10.868;2023-12-29T12:02:35;96082.31;;;10.28;100.00
16834;BME280;8533;48.426;10.868;2023-12-29T12:05:00;96075.78;;;10.31;100.00
16834;BME280;8533;48.426;10.868;2023-12-29T12:09:51;96092.19;;;10.48;100.00
16834;BME280;8533;48.426;10.868;2023-12-29T12:12:38;96091.41;;;10.48;100.00
16834;BME280;8533;48.426;10.868;2023-12-29T12:17:54;96077.09;;;10.28;100.00
16834;BME280;8533;48.426;10.868;2023-12-29T12:20:20;96073.06;;;10.21;100.00
16834;BME280;8533;48.426;10.868;2023-12-29T12:22:49;95805.16;;;8.51;100.00
16834;BME280;8533;48.426;10.868;2023-12-29T12:25:15;96094.97;;;10.37;100.00
16834;BME280;8533;48.426;10.868;2023-12-29T12:27:41;96081.00;;;10.31;100.00
16834;BME280;8533;48.426;10.868;2023-12-29T12:30:07;96089.22;;;10.40;100.00
16834;BME280;8533;48.426;10.868;2023-12-29T12:32:35;96053.72;;;10.22;100.00
16834;BME280;8533;48.426;10.868;2023-12-29T12:35:01;96086.06;;;10.38;100.00
16834;BME280;8533;48.426;10.868;2023-12-29T12:37:27;96090.81;;;10.41;100.00
16834;BME280;8533;48.426;10.868;2023-12-29T12:39:53;96064.97;;;10.22;100.00
16834;BME280;8533;48.426;10.868;2023-12-29T12:42:19;96071.25;;;10.21;100.00
16834;BME280;8533;48.426;10.868;2023-12-29T12:44:54;96090.19;;;10.33;100.00
16834;BME280;8533;48.426;10.868;2023-12-29T12:47:26;96060.13;;;10.14;100.00
16834;BME280;8533;48.426;10.868;2023-12-29T12:49:52;96068.13;;;10.24;100.00
16834;BME280;8533;48.426;10.868;2023-12-29T12:52:17;96055.09;;;10.08;100.00
16834;BME280;8533;48.426;10.868;2023-12-29T12:54:43;96093.84;;;10.32;100.00
16834;BME280;8533;48.426;10.868;2023-12-29T12:57:09;96067.28;;;10.19;100.00
16834;BME280;8533;48.426;10.868;2023-12-29T12:59:34;96001.13;;;9.75;100.00
16834;BME280;8533;48.426;10.868;2023-12-29T13:02:02;96086.19;;;10.26;100.00
16834;BME280;8533;48.426;10.868;2023-12-29T13:04:27;96086.19;;;10.26;100.00
16834;BME280;8533;48.426;10.868;2023-12-29T13:06:52;96073.75;;;10.16;100.00
16834;BME280;8533;48.426;10.868;2023-12-29T13:09:18;96066.09;;;10.10;100.00
16834;BME280;8533;48.426;10.868;2023-12-29T13:11:44;96086.44;;;10.24;100.00
16834;BME280;8533;48.426;10.868;2023-12-29T13:14:22;96076.19;;;10.01;100.00
16834;BME280;8533;48.426;10.868;2023-12-29T13:16:47;96067.75;;;10.16;100.00
16834;BME280;8533;48.426;10.868;2023-12-29T13:19:16;96082.78;;;10.25;100.00
16834;BME280;8533;48.426;10.868;2023-12-29T13:21:46;95867.34;;;8.80;100.00
16834;BME280;8533;48.426;10.868;2023-12-29T13:24:12;96080.59;;;10.17;100.00
16834;BME280;8533;48.426;10.868;2023-12-29T13:26:38;96067.31;;;10.02;100.00
16834;BME280;8533;48.426;10.868;2023-12-29T13:29:03;96057.09;;;10.01;100.00
16834;BME280;8533;48.426;10.868;2023-12-29T13:31:29;96005.47;;;9.64;100.00
16834;BME280;8533;48.426;10.868;2023-12-29T13:34:00;96085.81;;;10.17;100.00
16834;BME280;8533;48.426;10.868;2023-12-29T13:36:37;96082.38;;;10.17;100.00
16834;BME280;8533;48.426;10.868;2023-12-29T13:39:09;96064.72;;;10.02;100.00
16834;BME280;8533;48.426;10.868;2023-12-29T13:41:38;96065.25;;;10.04;100.00
16834;BME280;8533;48.426;10.868;2023-12-29T13:44:04;96060.31;;;10.08;100.00
16834;BME280;8533;48.426;10.868;2023-12-29T13:46:30;95902.84;;;9.03;100.00
16834;BME280;8533;48.426;10.868;2023-12-29T13:48:56;96068.47;;;10.11;100.00